sensor_id;sensor_type;location;lat;lon;timestamp;P1;durP1;ratioP1;P2;durP2;ratioP2
72439;SDS011;60446;50.752;4.352;2023-04-03T00:01:20;11.63;;;4.05;;
72439;SDS011;60446;50.752;4.352;2023-04-03T00:03:47;10.65;;;4.15;;
72439;SDS011;60446;50.752;4.352;2023-04-03T00:06:14;11.75;;;4.43;;
72439;SDS011;60446;50.752;4.352;2023-04-03T00:08:41;13.82;;;5.00;;
72439;SDS011;60446;50.752;4.352;2023-04-03T00:11:09;11.18;;;3.58;;
72439;SDS011;60446;50.752;4.352;2023-04-03T00:13:36;10.05;;;3.88;;
72439;SDS011;60446;50.752;4.352;2023-04-03T00:16:05;10.70;;;3.70;;
72439;SDS011;60446;50.752;4.352;2023-04-03T00:18:34;10.05;;;2.90;;
72439;SDS011;60446;50.752;4.352;2023-04-03T00:21:02;9.05;;;3.70;;
72439;SDS011;60446;50.752;4.352;2023-04-03T00:23:30;9.30;;;3.70;;
72439;SDS011;60446;50.752;4.352;2023-04-03T00:25:57;10.25;;;3.05;;
72439;SDS011;60446;50.752;4.352;2023-04-03T00:28:24;13.63;;;3.75;;
72439;SDS011;60446;50.752;4.352;2023-04-03T00:30:53;10.52;;;3.60;;
72439;SDS011;60446;50.752;4.352;2023-04-03T00:33:20;9.95;;;3.70;;
72439;SDS011;60446;50.752;4.352;2023-04-03T00:35:51;10.13;;;3.40;;
72439;SDS011;60446;50.752;4.352;2023-04-03T00:38:18;9.75;;;3.35;;
72439;SDS011;60446;50.752;4.352;2023-04-03T00:40:47;11.77;;;3.38;;
72439;SDS011;60446;50.752;4.352;2023-04-03T00:43:23;9.45;;;3.53;;
72439;SDS011;60446;50.752;4.352;2023-04-03T00:45:53;9.68;;;4.10;;
72439;SDS011;60446;50.752;4.352;2023-04-03T00:48:24;11.50;;;3.63;;
72439;SDS011;60446;50.752;4.352;2023-04-03T00:50:52;9.38;;;3.70;;
72439;SDS011;60446;50.752;4.352;2023-04-03T00:53:31;10.40;;;3.65;;
72439;SDS011;60446;50.752;4.352;2023-04-03T00:56:05;9.25;;;3.72;;
72439;SDS011;60446;50.752;4.352;2023-04-03T00:58:52;10.82;;;3.45;;
72439;SDS011;60446;50.752;4.352;2023-04-03T01:01:28;7.40;;;2.72;;
72439;SDS011;60446;50.752;4.352;2023-04-03T01:03:58;7.13;;;2.38;;
72439;SDS011;60446;50.752;4.352;2023-04-03T01:06:28;7.40;;;2.25;;
72439;SDS011;60446;50.752;4.352;2023-04-03T01:09:05;8.73;;;3.17;;
72439;SDS011;60446;50.752;4.352;2023-04-03T01:11:32;7.88;;;3.08;;
72439;SDS011;60446;50.752;4.352;2023-04-03T01:14:01;7.10;;;2.47;;
72439;SDS011;60446;50.752;4.352;2023-04-03T01:16:28;8.18;;;2.90;;
72439;SDS011;60446;50.752;4.352;2023-04-03T01:18:58;11.00;;;3.25;;
72439;SDS011;60446;50.752;4.352;2023-04-03T01:24:27;10.75;;;2.85;;
72439;SDS011;60446;50.752;4.352;2023-04-03T01:27:05;11.68;;;3.40;;
72439;SDS011;60446;50.752;4.352;2023-04-03T01:29:34;10.57;;;3.50;;
72439;SDS011;60446;50.752;4.352;2023-04-03T01:32:02;6.97;;;2.35;;
72439;SDS011;60446;50.752;4.352;2023-04-03T01:34:30;9.55;;;3.20;;
72439;SDS011;60446;50.752;4.352;2023-04-03T01:36:58;7.00;;;2.47;;
72439;SDS011;60446;50.752;4.352;2023-04-03T01:39:25;9.07;;;2.67;;
72439;SDS011;60446;50.752;4.352;2023-04-03T01:41:53;6.60;;;2.22;;
72439;SDS011;60446;50.752;4.352;2023-04-03T01:44:27;8.43;;;2.80;;
72439;SDS011;60446;50.752;4.352;2023-04-03T01:46:54;10.18;;;3.58;;
72439;SDS011;60446;50.752;4.352;2023-04-03T01:49:23;10.65;;;3.20;;
72439;SDS011;60446;50.752;4.352;2023-04-03T01:51:51;10.32;;;2.90;;
72439;SDS011;60446;50.752;4.352;2023-04-03T01:54:18;7.90;;;2.90;;
72439;SDS011;60446;50.752;4.352;2023-04-03T01:56:45;8.93;;;3.15;;
72439;SDS011;60446;50.752;4.352;2023-04-03T01:59:13;6.28;;;2.03;;
72439;SDS011;60446;50.752;4.352;2023-04-03T02:01:43;7.55;;;2.88;;
72439;SDS011;60446;50.752;4.352;2023-04-03T02:04:11;8.45;;;3.13;;
72439;SDS011;60446;50.752;4.352;2023-04-03T02:06:39;8.25;;;2.65;;
72439;SDS011;60446;50.752;4.352;2023-04-03T02:09:07;8.38;;;2.70;;
72439;SDS011;60446;50.752;4.352;2023-04-03T02:11:34;7.97;;;3.13;;
72439;SDS011;60446;50.752;4.352;2023-04-03T02:14:01;9.98;;;3.15;;
72439;SDS011;60446;50.752;4.352;2023-04-03T02:16:30;12.27;;;2.83;;
72439;SDS011;60446;50.752;4.352;2023-04-03T02:18:57;9.43;;;3.67;;
72439;SDS011;60446;50.752;4.352;2023-04-03T02:21:24;13.27;;;2.97;;
72439;SDS011;60446;50.752;4.352;2023-04-03T02:23:52;9.35;;;3.13;;
72439;SDS011;60446;50.752;4.352;2023-04-03T02:26:19;8.32;;;2.80;;
72439;SDS011;60446;50.752;4.352;2023-04-03T02:28:47;10.65;;;2.83;;
72439;SDS011;60446;50.752;4.352;2023-04-03T02:31:14;7.60;;;2.75;;
72439;SDS011;60446;50.752;4.352;2023-04-03T02:33:44;9.35;;;2.80;;
72439;SDS011;60446;50.752;4.352;2023-04-03T02:36:13;11.35;;;3.33;;
72439;SDS011;60446;50.752;4.352;2023-04-03T02:38:44;8.20;;;2.65;;
72439;SDS011;60446;50.752;4.352;2023-04-03T02:41:12;8.35;;;3.40;;
72439;SDS011;60446;50.752;4.352;2023-04-03T02:43:39;7.80;;;2.13;;
72439;SDS011;60446;50.752;4.352;2023-04-03T02:46:07;9.02;;;3.00;;
72439;SDS011;60446;50.752;4.352;2023-04-03T02:48:34;7.93;;;2.47;;
72439;SDS011;60446;50.752;4.352;2023-04-03T02:51:03;7.93;;;3.00;;
72439;SDS011;60446;50.752;4.352;2023-04-03T02:53:30;9.45;;;3.47;;
72439;SDS011;60446;50.752;4.352;2023-04-03T02:56:02;8.40;;;2.28;;
72439;SDS011;60446;50.752;4.352;2023-04-03T02:58:29;6.65;;;1.77;;
72439;SDS011;60446;50.752;4.352;2023-04-03T03:00:58;9.57;;;2.10;;
72439;SDS011;60446;50.752;4.352;2023-04-03T03:03:25;8.00;;;2.58;;
72439;SDS011;60446;50.752;4.352;2023-04-03T03:06:06;8.43;;;3.20;;
72439;SDS011;60446;50.752;4.352;2023-04-03T03:08:39;8.40;;;2.65;;
72439;SDS011;60446;50.752;4.352;2023-04-03T03:11:07;10.63;;;2.60;;
72439;SDS011;60446;50.752;4.352;2023-04-03T03:13:35;8.55;;;2.70;;
72439;SDS011;60446;50.752;4.352;2023-04-03T03:16:03;9.15;;;2.65;;
72439;SDS011;60446;50.752;4.352;2023-04-03T03:18:32;6.72;;;2.80;;
72439;SDS011;60446;50.752;4.352;2023-04-03T03:21:00;8.43;;;2.72;;
72439;SDS011;60446;50.752;4.352;2023-04-03T03:23:29;9.07;;;2.83;;
72439;SDS011;60446;50.752;4.352;2023-04-03T03:25:59;7.90;;;2.35;;
72439;SDS011;60446;50.752;4.352;2023-04-03T03:28:29;7.55;;;2.50;;
72439;SDS011;60446;50.752;4.352;2023-04-03T03:30:57;10.20;;;2.97;;
72439;SDS011;60446;50.752;4.352;2023-04-03T03:33:25;13.10;;;3.42;;
72439;SDS011;60446;50.752;4.352;2023-04-03T03:35:53;10.20;;;2.53;;
72439;SDS011;60446;50.752;4.352;2023-04-03T03:38:21;9.45;;;2.42;;
72439;SDS011;60446;50.752;4.352;2023-04-03T03:40:50;7.70;;;2.60;;
72439;SDS011;60446;50.752;4.352;2023-04-03T03:43:20;7.47;;;2.20;;
72439;SDS011;60446;50.752;4.352;2023-04-03T03:45:52;8.38;;;2.30;;
72439;SDS011;60446;50.752;4.352;2023-04-03T03:48:22;7.35;;;2.53;;
72439;SDS011;60446;50.752;4.352;2023-04-03T03:50:50;10.93;;;2.45;;
72439;SDS011;60446;50.752;4.352;2023-04-03T03:53:21;8.32;;;2.90;;
72439;SDS011;60446;50.752;4.352;2023-04-03T03:55:51;9.77;;;2.83;;
72439;SDS011;60446;50.752;4.352;2023-04-03T03:58:21;5.70;;;1.75;;
72439;SDS011;60446;50.752;4.352;2023-04-03T04:00:48;8.23;;;2.78;;
72439;SDS011;60446;50.752;4.352;2023-04-03T04:03:16;10.52;;;2.95;;
72439;SDS011;60446;50.752;4.352;2023-04-03T04:05:46;9.43;;;2.05;;
72439;SDS011;60446;50.752;4.352;2023-04-03T04:08:14;6.55;;;1.92;;
72439;SDS011;60446;50.752;4.352;2023-04-03T04:10:43;7.47;;;2.30;;
72439;SDS011;60446;50.752;4.352;2023-04-03T04:13:12;7.05;;;2.17;;
72439;SDS011;60446;50.752;4.352;2023-04-03T04:15:39;9.05;;;2.50;;
72439;SDS011;60446;50.752;4.352;2023-04-03T04:18:06;8.13;;;2.90;;
72439;SDS011;60446;50.752;4.352;2023-04-03T04:20:34;11.77;;;2.83;;
72439;SDS011;60446;50.752;4.352;2023-04-03T04:23:01;9.60;;;3.05;;
72439;SDS011;60446;50.752;4.352;2023-04-03T04:25:30;11.35;;;3.13;;
72439;SDS011;60446;50.752;4.352;2023-04-03T04:27:57;9.40;;;2.55;;
72439;SDS011;60446;50.752;4.352;2023-04-03T04:30:24;7.28;;;2.97;;
72439;SDS011;60446;50.752;4.352;2023-04-03T04:32:53;6.50;;;2.38;;
72439;SDS011;60446;50.752;4.352;2023-04-03T04:35:21;6.82;;;2.67;;
72439;SDS011;60446;50.752;4.352;2023-04-03T04:37:50;13.20;;;3.13;;
72439;SDS011;60446;50.752;4.352;2023-04-03T04:40:17;10.75;;;2.72;;
72439;SDS011;60446;50.752;4.352;2023-04-03T04:42:45;7.72;;;3.00;;
72439;SDS011;60446;50.752;4.352;2023-04-03T04:45:12;8.57;;;2.65;;
72439;SDS011;60446;50.752;4.352;2023-04-03T04:47:41;8.48;;;2.63;;
72439;SDS011;60446;50.752;4.352;2023-04-03T04:50:09;9.57;;;3.05;;
72439;SDS011;60446;50.752;4.352;2023-04-03T04:52:37;7.47;;;2.55;;
72439;SDS011;60446;50.752;4.352;2023-04-03T04:55:06;8.65;;;2.63;;
72439;SDS011;60446;50.752;4.352;2023-04-03T04:57:34;9.38;;;3.30;;
72439;SDS011;60446;50.752;4.352;2023-04-03T05:00:02;10.85;;;3.00;;
72439;SDS011;60446;50.752;4.352;2023-04-03T05:02:31;8.55;;;3.00;;
72439;SDS011;60446;50.752;4.352;2023-04-03T05:04:58;14.48;;;3.00;;
72439;SDS011;60446;50.752;4.352;2023-04-03T05:07:28;7.47;;;2.67;;
72439;SDS011;60446;50.752;4.352;2023-04-03T05:09:57;8.45;;;3.25;;
72439;SDS011;60446;50.752;4.352;2023-04-03T05:12:25;8.88;;;3.03;;
72439;SDS011;60446;50.752;4.352;2023-04-03T05:14:57;9.43;;;3.00;;
72439;SDS011;60446;50.752;4.352;2023-04-03T05:17:25;7.72;;;3.40;;
72439;SDS011;60446;50.752;4.352;2023-04-03T05:19:55;10.10;;;2.78;;
72439;SDS011;60446;50.752;4.352;2023-04-03T05:22:24;7.32;;;2.70;;
72439;SDS011;60446;50.752;4.352;2023-04-03T05:24:55;10.18;;;2.90;;
72439;SDS011;60446;50.752;4.352;2023-04-03T05:27:23;10.77;;;3.28;;
72439;SDS011;60446;50.752;4.352;2023-04-03T05:29:53;8.95;;;3.75;;
72439;SDS011;60446;50.752;4.352;2023-04-03T05:32:22;9.10;;;3.45;;
72439;SDS011;60446;50.752;4.352;2023-04-03T05:35:00;9.15;;;2.65;;
72439;SDS011;60446;50.752;4.352;2023-04-03T05:37:28;9.40;;;2.83;;
72439;SDS011;60446;50.752;4.352;2023-04-03T05:39:56;10.68;;;3.33;;
72439;SDS011;60446;50.752;4.352;2023-04-03T05:42:23;13.20;;;3.42;;
72439;SDS011;60446;50.752;4.352;2023-04-03T05:44:51;10.82;;;3.38;;
72439;SDS011;60446;50.752;4.352;2023-04-03T05:47:18;10.70;;;2.75;;
72439;SDS011;60446;50.752;4.352;2023-04-03T05:49:46;9.65;;;3.60;;
72439;SDS011;60446;50.752;4.352;2023-04-03T05:52:28;8.18;;;3.13;;
72439;SDS011;60446;50.752;4.352;2023-04-03T05:55:00;11.95;;;3.85;;
72439;SDS011;60446;50.752;4.352;2023-04-03T05:57:29;11.50;;;3.85;;
72439;SDS011;60446;50.752;4.352;2023-04-03T05:59:57;8.63;;;3.05;;
72439;SDS011;60446;50.752;4.352;2023-04-03T06:02:24;10.43;;;3.03;;
72439;SDS011;60446;50.752;4.352;2023-04-03T06:04:52;9.27;;;3.15;;
72439;SDS011;60446;50.752;4.352;2023-04-03T06:07:21;9.68;;;3.35;;
72439;SDS011;60446;50.752;4.352;2023-04-03T06:09:50;10.40;;;3.30;;
72439;SDS011;60446;50.752;4.352;2023-04-03T06:12:18;9.35;;;2.90;;
72439;SDS011;60446;50.752;4.352;2023-04-03T06:14:46;13.25;;;3.00;;
72439;SDS011;60446;50.752;4.352;2023-04-03T06:17:14;10.88;;;3.22;;
72439;SDS011;60446;50.752;4.352;2023-04-03T06:19:44;10.98;;;3.00;;
72439;SDS011;60446;50.752;4.352;2023-04-03T06:22:11;7.88;;;2.88;;
72439;SDS011;60446;50.752;4.352;2023-04-03T06:24:40;7.90;;;2.75;;
72439;SDS011;60446;50.752;4.352;2023-04-03T06:27:08;9.27;;;3.75;;
72439;SDS011;60446;50.752;4.352;2023-04-03T06:29:37;9.30;;;3.58;;
72439;SDS011;60446;50.752;4.352;2023-04-03T06:32:05;9.38;;;3.80;;
72439;SDS011;60446;50.752;4.352;2023-04-03T06:34:32;10.52;;;2.72;;
72439;SDS011;60446;50.752;4.352;2023-04-03T06:36:59;7.47;;;3.30;;
72439;SDS011;60446;50.752;4.352;2023-04-03T06:39:27;8.93;;;3.45;;
72439;SDS011;60446;50.752;4.352;2023-04-03T06:41:54;12.73;;;3.78;;
72439;SDS011;60446;50.752;4.352;2023-04-03T06:44:29;9.38;;;3.40;;
72439;SDS011;60446;50.752;4.352;2023-04-03T06:46:56;9.90;;;3.10;;
72439;SDS011;60446;50.752;4.352;2023-04-03T06:49:23;10.30;;;4.28;;
72439;SDS011;60446;50.752;4.352;2023-04-03T06:51:51;11.52;;;4.15;;
72439;SDS011;60446;50.752;4.352;2023-04-03T06:54:18;13.65;;;4.45;;
72439;SDS011;60446;50.752;4.352;2023-04-03T06:56:46;12.15;;;3.22;;
72439;SDS011;60446;50.752;4.352;2023-04-03T06:59:13;11.38;;;3.72;;
72439;SDS011;60446;50.752;4.352;2023-04-03T07:01:41;12.27;;;4.65;;
72439;SDS011;60446;50.752;4.352;2023-04-03T07:04:09;10.75;;;4.15;;
72439;SDS011;60446;50.752;4.352;2023-04-03T07:06:36;16.80;;;4.72;;
72439;SDS011;60446;50.752;4.352;2023-04-03T07:09:03;11.27;;;4.80;;
72439;SDS011;60446;50.752;4.352;2023-04-03T07:11:30;12.85;;;4.43;;
72439;SDS011;60446;50.752;4.352;2023-04-03T07:13:57;12.50;;;4.88;;
72439;SDS011;60446;50.752;4.352;2023-04-03T07:16:24;12.57;;;4.40;;
72439;SDS011;60446;50.752;4.352;2023-04-03T07:18:51;10.80;;;4.45;;
72439;SDS011;60446;50.752;4.352;2023-04-03T07:21:19;11.50;;;5.03;;
72439;SDS011;60446;50.752;4.352;2023-04-03T07:23:46;15.80;;;5.32;;
72439;SDS011;60446;50.752;4.352;2023-04-03T07:26:14;11.27;;;4.45;;
72439;SDS011;60446;50.752;4.352;2023-04-03T07:28:42;13.13;;;4.45;;
72439;SDS011;60446;50.752;4.352;2023-04-03T07:31:11;12.52;;;3.95;;
72439;SDS011;60446;50.752;4.352;2023-04-03T07:33:40;9.48;;;3.33;;
72439;SDS011;60446;50.752;4.352;2023-04-03T07:36:08;10.38;;;4.20;;
72439;SDS011;60446;50.752;4.352;2023-04-03T07:38:37;11.95;;;4.40;;
72439;SDS011;60446;50.752;4.352;2023-04-03T07:41:04;12.43;;;4.85;;
72439;SDS011;60446;50.752;4.352;2023-04-03T07:43:32;14.13;;;5.32;;
72439;SDS011;60446;50.752;4.352;2023-04-03T07:46:00;11.90;;;4.50;;
72439;SDS011;60446;50.752;4.352;2023-04-03T07:48:28;11.60;;;4.38;;
72439;SDS011;60446;50.752;4.352;2023-04-03T07:50:59;12.93;;;4.38;;
72439;SDS011;60446;50.752;4.352;2023-04-03T07:53:28;13.20;;;4.18;;
72439;SDS011;60446;50.752;4.352;2023-04-03T07:55:58;12.43;;;4.60;;
72439;SDS011;60446;50.752;4.352;2023-04-03T07:58:26;11.88;;;4.03;;
72439;SDS011;60446;50.752;4.352;2023-04-03T08:00:53;13.30;;;4.43;;
72439;SDS011;60446;50.752;4.352;2023-04-03T08:03:20;8.85;;;3.70;;
72439;SDS011;60446;50.752;4.352;2023-04-03T08:05:48;10.50;;;3.83;;
72439;SDS011;60446;50.752;4.352;2023-04-03T08:08:17;12.52;;;4.47;;
72439;SDS011;60446;50.752;4.352;2023-04-03T08:10:48;11.00;;;4.50;;
72439;SDS011;60446;50.752;4.352;2023-04-03T08:13:18;13.43;;;4.60;;
72439;SDS011;60446;50.752;4.352;2023-04-03T08:15:46;8.90;;;3.08;;
72439;SDS011;60446;50.752;4.352;2023-04-03T08:18:14;9.82;;;4.55;;
72439;SDS011;60446;50.752;4.352;2023-04-03T08:20:42;10.63;;;4.07;;
72439;SDS011;60446;50.752;4.352;2023-04-03T08:23:10;10.43;;;3.88;;
72439;SDS011;60446;50.752;4.352;2023-04-03T08:25:40;10.95;;;3.80;;
72439;SDS011;60446;50.752;4.352;2023-04-03T08:28:09;10.52;;;3.80;;
72439;SDS011;60446;50.752;4.352;2023-04-03T08:30:41;10.15;;;3.00;;
72439;SDS011;60446;50.752;4.352;2023-04-03T08:33:09;8.38;;;3.50;;
72439;SDS011;60446;50.752;4.352;2023-04-03T08:35:40;11.90;;;3.97;;
72439;SDS011;60446;50.752;4.352;2023-04-03T08:38:09;13.35;;;4.40;;
72439;SDS011;60446;50.752;4.352;2023-04-03T08:40:37;9.65;;;3.80;;
72439;SDS011;60446;50.752;4.352;2023-04-03T08:43:22;13.48;;;3.75;;
72439;SDS011;60446;50.752;4.352;2023-04-03T08:46:07;10.75;;;3.45;;
72439;SDS011;60446;50.752;4.352;2023-04-03T08:48:42;11.38;;;3.95;;
72439;SDS011;60446;50.752;4.352;2023-04-03T08:51:14;9.50;;;2.80;;
72439;SDS011;60446;50.752;4.352;2023-04-03T08:54:04;7.60;;;2.58;;
72439;SDS011;60446;50.752;4.352;2023-04-03T08:56:46;10.70;;;3.35;;
72439;SDS011;60446;50.752;4.352;2023-04-03T08:59:14;7.50;;;2.53;;
72439;SDS011;60446;50.752;4.352;2023-04-03T09:01:51;7.68;;;2.70;;
72439;SDS011;60446;50.752;4.352;2023-04-03T09:04:20;10.60;;;3.50;;
72439;SDS011;60446;50.752;4.352;2023-04-03T09:06:54;10.20;;;2.90;;
72439;SDS011;60446;50.752;4.352;2023-04-03T09:12:23;8.18;;;2.85;;
72439;SDS011;60446;50.752;4.352;2023-04-03T09:17:37;7.05;;;2.88;;
72439;SDS011;60446;50.752;4.352;2023-04-03T09:20:14;8.00;;;3.03;;
72439;SDS011;60446;50.752;4.352;2023-04-03T09:23:18;9.80;;;2.92;;
72439;SDS011;60446;50.752;4.352;2023-04-03T09:26:24;7.97;;;2.10;;
72439;SDS011;60446;50.752;4.352;2023-04-03T09:28:59;5.47;;;2.03;;
72439;SDS011;60446;50.752;4.352;2023-04-03T09:31:39;6.88;;;2.40;;
72439;SDS011;60446;50.752;4.352;2023-04-03T09:34:14;5.28;;;1.67;;
72439;SDS011;60446;50.752;4.352;2023-04-03T09:36:51;6.70;;;2.20;;
72439;SDS011;60446;50.752;4.352;2023-04-03T09:39:22;7.20;;;2.30;;
72439;SDS011;60446;50.752;4.352;2023-04-03T09:45:02;7.50;;;1.83;;
72439;SDS011;60446;50.752;4.352;2023-04-03T09:47:45;6.83;;;2.00;;
72439;SDS011;60446;50.752;4.352;2023-04-03T09:52:40;10.15;;;2.25;;
72439;SDS011;60446;50.752;4.352;2023-04-03T09:55:21;5.60;;;1.70;;
72439;SDS011;60446;50.752;4.352;2023-04-03T09:57:57;5.43;;;1.88;;
72439;SDS011;60446;50.752;4.352;2023-04-03T10:03:02;5.65;;;1.67;;
72439;SDS011;60446;50.752;4.352;2023-04-03T10:05:33;7.75;;;2.15;;
72439;SDS011;60446;50.752;4.352;2023-04-03T10:10:45;6.22;;;1.40;;
72439;SDS011;60446;50.752;4.352;2023-04-03T10:13:19;8.77;;;1.43;;
72439;SDS011;60446;50.752;4.352;2023-04-03T10:21:10;6.35;;;1.42;;
72439;SDS011;60446;50.752;4.352;2023-04-03T10:25:00;7.15;;;1.60;;
72439;SDS011;60446;50.752;4.352;2023-04-03T10:37:30;4.53;;;1.35;;
72439;SDS011;60446;50.752;4.352;2023-04-03T10:46:13;4.78;;;1.73;;
72439;SDS011;60446;50.752;4.352;2023-04-03T10:54:46;3.63;;;1.00;;
72439;SDS011;60446;50.752;4.352;2023-04-03T10:57:32;3.90;;;1.10;;
72439;SDS011;60446;50.752;4.352;2023-04-03T11:00:00;5.30;;;1.35;;
72439;SDS011;60446;50.752;4.352;2023-04-03T11:03:11;4.70;;;1.10;;
72439;SDS011;60446;50.752;4.352;2023-04-03T11:05:45;4.45;;;1.35;;
72439;SDS011;60446;50.752;4.352;2023-04-03T11:11:00;5.67;;;1.40;;
72439;SDS011;60446;50.752;4.352;2023-04-03T11:13:34;5.03;;;1.02;;
72439;SDS011;60446;50.752;4.352;2023-04-03T11:16:09;4.53;;;1.10;;
72439;SDS011;60446;50.752;4.352;2023-04-03T11:18:49;4.55;;;1.05;;
72439;SDS011;60446;50.752;4.352;2023-04-03T11:21:33;5.93;;;1.30;;
72439;SDS011;60446;50.752;4.352;2023-04-03T11:24:17;4.13;;;1.07;;
72439;SDS011;60446;50.752;4.352;2023-04-03T11:26:50;4.65;;;1.00;;
72439;SDS011;60446;50.752;4.352;2023-04-03T11:29:22;4.57;;;1.23;;
72439;SDS011;60446;50.752;4.352;2023-04-03T11:32:06;6.07;;;1.23;;
72439;SDS011;60446;50.752;4.352;2023-04-03T11:35:01;4.20;;;0.90;;
72439;SDS011;60446;50.752;4.352;2023-04-03T11:37:35;5.10;;;1.40;;
72439;SDS011;60446;50.752;4.352;2023-04-03T11:43:15;4.80;;;1.15;;
72439;SDS011;60446;50.752;4.352;2023-04-03T11:45:56;4.22;;;0.98;;
72439;SDS011;60446;50.752;4.352;2023-04-03T11:50:58;6.10;;;1.60;;
72439;SDS011;60446;50.752;4.352;2023-04-03T11:53:39;5.25;;;1.40;;
72439;SDS011;60446;50.752;4.352;2023-04-03T11:59:35;2.83;;;0.80;;
72439;SDS011;60446;50.752;4.352;2023-04-03T12:01:49;4.32;;;0.80;;
72439;SDS011;60446;50.752;4.352;2023-04-03T12:04:23;3.80;;;0.80;;
72439;SDS011;60446;50.752;4.352;2023-04-03T12:07:00;5.10;;;1.15;;
72439;SDS011;60446;50.752;4.352;2023-04-03T12:12:40;4.50;;;1.10;;
72439;SDS011;60446;50.752;4.352;2023-04-03T12:27:01;3.28;;;0.88;;
72439;SDS011;60446;50.752;4.352;2023-04-03T12:47:20;4.33;;;1.30;;
72439;SDS011;60446;50.752;4.352;2023-04-03T12:49:59;5.68;;;1.20;;
72439;SDS011;60446;50.752;4.352;2023-04-03T12:52:34;5.53;;;1.65;;
72439;SDS011;60446;50.752;4.352;2023-04-03T12:55:11;4.93;;;1.13;;
72439;SDS011;60446;50.752;4.352;2023-04-03T12:57:46;4.00;;;0.90;;
72439;SDS011;60446;50.752;4.352;2023-04-03T13:00:21;5.70;;;0.90;;
72439;SDS011;60446;50.752;4.352;2023-04-03T13:03:03;3.53;;;0.90;;
72439;SDS011;60446;50.752;4.352;2023-04-03T13:05:33;4.10;;;1.10;;
72439;SDS011;60446;50.752;4.352;2023-04-03T13:08:04;3.50;;;0.93;;
72439;SDS011;60446;50.752;4.352;2023-04-03T13:10:59;2.90;;;0.70;;
72439;SDS011;60446;50.752;4.352;2023-04-03T13:13:37;3.70;;;1.17;;
72439;SDS011;60446;50.752;4.352;2023-04-03T13:16:09;3.40;;;0.60;;
72439;SDS011;60446;50.752;4.352;2023-04-03T13:18:38;3.85;;;1.00;;
72439;SDS011;60446;50.752;4.352;2023-04-03T13:21:15;4.30;;;1.00;;
72439;SDS011;60446;50.752;4.352;2023-04-03T13:23:48;2.72;;;0.70;;
72439;SDS011;60446;50.752;4.352;2023-04-03T13:26:32;5.27;;;1.10;;
72439;SDS011;60446;50.752;4.352;2023-04-03T13:29:04;4.63;;;0.90;;
72439;SDS011;60446;50.752;4.352;2023-04-03T13:31:43;2.72;;;0.70;;
72439;SDS011;60446;50.752;4.352;2023-04-03T13:34:15;3.85;;;0.68;;
72439;SDS011;60446;50.752;4.352;2023-04-03T13:36:54;3.85;;;0.63;;
72439;SDS011;60446;50.752;4.352;2023-04-03T13:39:24;2.47;;;0.50;;
72439;SDS011;60446;50.752;4.352;2023-04-03T13:41:58;4.95;;;0.88;;
72439;SDS011;60446;50.752;4.352;2023-04-03T13:44:31;5.53;;;0.60;;
72439;SDS011;60446;50.752;4.352;2023-04-03T13:47:19;3.58;;;0.65;;
72439;SDS011;60446;50.752;4.352;2023-04-03T13:53:00;2.90;;;0.40;;
72439;SDS011;60446;50.752;4.352;2023-04-03T13:55:35;3.28;;;0.60;;
72439;SDS011;60446;50.752;4.352;2023-04-03T13:58:22;4.05;;;0.90;;
72439;SDS011;60446;50.752;4.352;2023-04-03T14:01:14;2.90;;;0.45;;
72439;SDS011;60446;50.752;4.352;2023-04-03T14:03:54;4.85;;;0.80;;
72439;SDS011;60446;50.752;4.352;2023-04-03T14:06:28;4.10;;;0.70;;
72439;SDS011;60446;50.752;4.352;2023-04-03T14:08:58;4.55;;;0.68;;
72439;SDS011;60446;50.752;4.352;2023-04-03T14:11:26;4.88;;;0.90;;
72439;SDS011;60446;50.752;4.352;2023-04-03T14:13:57;4.18;;;0.63;;
72439;SDS011;60446;50.752;4.352;2023-04-03T14:16:32;6.00;;;0.90;;
72439;SDS011;60446;50.752;4.352;2023-04-03T14:19:07;4.23;;;0.97;;
72439;SDS011;60446;50.752;4.352;2023-04-03T14:21:44;4.35;;;0.90;;
72439;SDS011;60446;50.752;4.352;2023-04-03T14:24:11;3.45;;;0.60;;
72439;SDS011;60446;50.752;4.352;2023-04-03T14:26:38;3.70;;;0.75;;
72439;SDS011;60446;50.752;4.352;2023-04-03T14:29:05;3.80;;;0.85;;
72439;SDS011;60446;50.752;4.352;2023-04-03T14:31:32;3.77;;;0.73;;
72439;SDS011;60446;50.752;4.352;2023-04-03T14:34:00;3.40;;;1.10;;
72439;SDS011;60446;50.752;4.352;2023-04-03T14:36:28;3.22;;;1.02;;
72439;SDS011;60446;50.752;4.352;2023-04-03T14:38:57;5.00;;;1.08;;
72439;SDS011;60446;50.752;4.352;2023-04-03T14:41:25;3.72;;;0.98;;
72439;SDS011;60446;50.752;4.352;2023-04-03T14:43:53;4.53;;;0.97;;
72439;SDS011;60446;50.752;4.352;2023-04-03T14:46:26;3.78;;;0.75;;
72439;SDS011;60446;50.752;4.352;2023-04-03T14:49:25;5.30;;;0.95;;
72439;SDS011;60446;50.752;4.352;2023-04-03T14:51:56;4.68;;;0.90;;
72439;SDS011;60446;50.752;4.352;2023-04-03T14:54:24;3.35;;;0.88;;
72439;SDS011;60446;50.752;4.352;2023-04-03T14:56:54;4.53;;;0.90;;
72439;SDS011;60446;50.752;4.352;2023-04-03T14:59:39;4.45;;;1.15;;
72439;SDS011;60446;50.752;4.352;2023-04-03T15:02:26;2.83;;;0.75;;
72439;SDS011;60446;50.752;4.352;2023-04-03T15:05:01;5.20;;;1.00;;
72439;SDS011;60446;50.752;4.352;2023-04-03T15:07:35;4.47;;;1.15;;
72439;SDS011;60446;50.752;4.352;2023-04-03T15:10:25;3.77;;;0.90;;
72439;SDS011;60446;50.752;4.352;2023-04-03T15:12:56;3.92;;;1.00;;
72439;SDS011;60446;50.752;4.352;2023-04-03T15:15:24;3.72;;;0.90;;
72439;SDS011;60446;50.752;4.352;2023-04-03T15:17:56;6.43;;;0.93;;
72439;SDS011;60446;50.752;4.352;2023-04-03T15:20:27;4.57;;;1.20;;
72439;SDS011;60446;50.752;4.352;2023-04-03T15:22:57;5.23;;;0.80;;
72439;SDS011;60446;50.752;4.352;2023-04-03T15:25:27;4.25;;;0.90;;
72439;SDS011;60446;50.752;4.352;2023-04-03T15:27:55;4.38;;;0.95;;
72439;SDS011;60446;50.752;4.352;2023-04-03T15:30:23;4.38;;;1.20;;
72439;SDS011;60446;50.752;4.352;2023-04-03T15:32:53;4.70;;;1.20;;
72439;SDS011;60446;50.752;4.352;2023-04-03T15:35:21;3.77;;;1.10;;
72439;SDS011;60446;50.752;4.352;2023-04-03T15:37:48;4.25;;;1.30;;
72439;SDS011;60446;50.752;4.352;2023-04-03T15:40:15;3.28;;;0.95;;
72439;SDS011;60446;50.752;4.352;2023-04-03T15:42:42;3.00;;;0.88;;
72439;SDS011;60446;50.752;4.352;2023-04-03T15:45:10;4.60;;;1.42;;
72439;SDS011;60446;50.752;4.352;2023-04-03T15:47:37;4.60;;;1.37;;
72439;SDS011;60446;50.752;4.352;2023-04-03T15:50:05;5.18;;;1.13;;
72439;SDS011;60446;50.752;4.352;2023-04-03T15:52:34;4.88;;;1.08;;
72439;SDS011;60446;50.752;4.352;2023-04-03T15:55:02;5.53;;;1.60;;
72439;SDS011;60446;50.752;4.352;2023-04-03T15:57:30;5.10;;;1.45;;
72439;SDS011;60446;50.752;4.352;2023-04-03T15:59:57;5.53;;;1.40;;
72439;SDS011;60446;50.752;4.352;2023-04-03T16:02:24;3.85;;;1.23;;
72439;SDS011;60446;50.752;4.352;2023-04-03T16:04:54;5.80;;;1.55;;
72439;SDS011;60446;50.752;4.352;2023-04-03T16:07:21;5.82;;;1.40;;
72439;SDS011;60446;50.752;4.352;2023-04-03T16:09:48;6.32;;;1.83;;
72439;SDS011;60446;50.752;4.352;2023-04-03T16:12:16;4.97;;;1.67;;
72439;SDS011;60446;50.752;4.352;2023-04-03T16:14:43;6.75;;;1.80;;
72439;SDS011;60446;50.752;4.352;2023-04-03T16:17:10;5.32;;;1.27;;
72439;SDS011;60446;50.752;4.352;2023-04-03T16:19:37;5.68;;;1.33;;
72439;SDS011;60446;50.752;4.352;2023-04-03T16:22:05;5.13;;;1.42;;
72439;SDS011;60446;50.752;4.352;2023-04-03T16:24:32;4.07;;;0.97;;
72439;SDS011;60446;50.752;4.352;2023-04-03T16:26:59;5.50;;;1.30;;
72439;SDS011;60446;50.752;4.352;2023-04-03T16:29:26;3.85;;;1.05;;
72439;SDS011;60446;50.752;4.352;2023-04-03T16:31:54;4.60;;;1.15;;
72439;SDS011;60446;50.752;4.352;2023-04-03T16:34:21;4.72;;;1.00;;
72439;SDS011;60446;50.752;4.352;2023-04-03T16:36:48;6.60;;;1.07;;
72439;SDS011;60446;50.752;4.352;2023-04-03T16:39:15;5.03;;;1.17;;
72439;SDS011;60446;50.752;4.352;2023-04-03T16:41:42;8.13;;;0.85;;